createdAt,value
2018-06-29T00:00:15.794Z,19.26
2018-06-29T00:02:44.358Z,19.41
2018-06-29T00:05:12.876Z,19.38
2018-06-29T00:07:41.471Z,19.36
2018-06-29T00:10:10.193Z,19.37
2018-06-29T00:12:38.731Z,19.58
2018-06-29T00:15:07.276Z,19.60
2018-06-29T00:17:35.825Z,19.55
2018-06-29T00:20:05.004Z,19.72
2018-06-29T00:22:33.536Z,19.62
2018-06-29T00:25:02.045Z,19.65
2018-06-29T00:27:30.644Z,19.74
2018-06-29T00:29:59.153Z,19.80
2018-06-29T00:32:27.692Z,19.72
2018-06-29T00:34:56.201Z,19.67
2018-06-29T00:37:24.852Z,19.66
2018-06-29T00:39:53.372Z,19.73
2018-06-29T00:42:21.989Z,19.70
2018-06-29T00:44:50.536Z,19.65
2018-06-29T00:47:19.096Z,19.65
2018-06-29T00:49:47.648Z,19.72
2018-06-29T00:52:19.125Z,19.64
2018-06-29T00:54:47.660Z,19.52
2018-06-29T00:57:16.196Z,19.46
2018-06-29T00:59:44.735Z,19.56
2018-06-29T01:02:13.256Z,19.56
2018-06-29T01:04:41.795Z,19.75
2018-06-29T01:07:10.356Z,19.80
2018-06-29T01:09:38.889Z,19.75
2018-06-29T01:12:07.464Z,19.63
2018-06-29T01:14:36.018Z,19.50
2018-06-29T01:17:05.137Z,19.36
2018-06-29T01:19:33.681Z,19.48
2018-06-29T01:22:02.224Z,19.50
2018-06-29T01:24:30.880Z,19.47
2018-06-29T01:27:00.021Z,19.38
2018-06-29T01:29:28.561Z,19.21
2018-06-29T01:31:57.072Z,18.98
2018-06-29T01:34:25.625Z,19.13
2018-06-29T01:36:54.136Z,19.18
2018-06-29T01:39:22.672Z,19.22
2018-06-29T01:41:51.252Z,19.31
2018-06-29T01:44:19.781Z,19.25
2018-06-29T01:46:48.300Z,19.07
2018-06-29T01:49:16.863Z,18.88
2018-06-29T01:51:45.373Z,18.93
2018-06-29T01:54:14.192Z,19.05
2018-06-29T01:56:42.724Z,19.09
2018-06-29T01:59:11.269Z,19.12
2018-06-29T02:01:40.018Z,19.10
2018-06-29T02:04:08.719Z,19.11
2018-06-29T02:06:37.389Z,19.11
2018-06-29T02:09:08.592Z,19.16
2018-06-29T02:11:37.171Z,19.13
2018-06-29T02:14:06.377Z,19.16
2018-06-29T02:16:35.270Z,19.24
2018-06-29T02:19:04.244Z,19.06
2018-06-29T02:21:33.004Z,19.25
2018-06-29T02:24:01.565Z,19.29
2018-06-29T02:26:30.263Z,19.34
2018-06-29T02:28:58.828Z,19.28
2018-06-29T02:31:27.381Z,19.20
2018-06-29T02:33:55.931Z,19.22
2018-06-29T02:36:24.453Z,19.11
2018-06-29T02:38:52.984Z,19.26
2018-06-29T02:41:21.541Z,19.05
2018-06-29T02:43:50.076Z,19.08
2018-06-29T02:46:18.620Z,19.24
2018-06-29T02:48:47.124Z,19.16
2018-06-29T02:51:15.673Z,19.20
2018-06-29T02:53:44.240Z,19.22
2018-06-29T02:56:12.824Z,19.04
2018-06-29T02:58:41.346Z,19.00
2018-06-29T03:01:09.954Z,18.94
2018-06-29T03:03:38.460Z,18.90
2018-06-29T03:06:07.024Z,18.92
2018-06-29T03:08:35.569Z,18.85
2018-06-29T03:11:04.128Z,18.76
2018-06-29T03:13:32.638Z,18.75
2018-06-29T03:16:01.183Z,19.00
2018-06-29T03:18:29.717Z,18.91
2018-06-29T03:20:58.600Z,18.97
2018-06-29T03:23:27.113Z,19.00
2018-06-29T03:25:55.664Z,19.07
2018-06-29T03:28:24.185Z,19.10
2018-06-29T03:30:52.736Z,19.02
2018-06-29T03:33:21.252Z,18.92
2018-06-29T03:35:49.788Z,18.78
2018-06-29T03:38:18.308Z,18.62
2018-06-29T03:40:46.877Z,18.69
2018-06-29T03:43:15.440Z,18.76
2018-06-29T03:45:44.096Z,18.90
2018-06-29T03:48:12.620Z,19.03
2018-06-29T03:50:41.221Z,19.02
2018-06-29T03:53:09.732Z,19.09
2018-06-29T03:55:38.288Z,19.10
2018-06-29T03:58:06.849Z,19.09
2018-06-29T04:00:35.816Z,19.14
2018-06-29T04:03:04.332Z,19.27
2018-06-29T04:05:32.896Z,19.27
2018-06-29T04:08:01.445Z,19.30
2018-06-29T04:10:30.017Z,19.32
2018-06-29T04:12:58.540Z,19.36
2018-06-29T04:15:27.172Z,19.38
2018-06-29T04:17:55.676Z,19.32
2018-06-29T04:20:24.225Z,19.35
2018-06-29T04:22:53.120Z,19.34
2018-06-29T04:25:21.661Z,19.32
2018-06-29T04:27:50.248Z,19.36
2018-06-29T04:30:18.782Z,19.32
2018-06-29T04:32:47.442Z,19.41
2018-06-29T04:35:15.928Z,19.33
2018-06-29T04:37:44.483Z,19.42
2018-06-29T04:40:13.023Z,19.41
2018-06-29T04:42:41.557Z,19.51
2018-06-29T04:45:10.056Z,19.42
2018-06-29T04:47:38.609Z,19.33
2018-06-29T04:50:07.132Z,19.36
2018-06-29T04:52:35.953Z,19.36
2018-06-29T04:55:06.725Z,19.33
2018-06-29T04:57:36.001Z,19.30
2018-06-29T05:00:05.013Z,19.35
2018-06-29T05:02:33.633Z,19.59
2018-06-29T05:05:02.177Z,19.44
2018-06-29T05:07:30.777Z,19.62
2018-06-29T05:09:59.356Z,19.73
2018-06-29T05:12:27.932Z,19.81
2018-06-29T05:14:56.468Z,19.88
2018-06-29T05:17:25.050Z,19.92
2018-06-29T05:19:53.581Z,20.09
2018-06-29T05:22:22.137Z,20.15
2018-06-29T05:24:50.657Z,20.27
2018-06-29T05:27:19.249Z,20.41
2018-06-29T05:29:48.220Z,20.45
2018-06-29T05:32:17.205Z,20.54
2018-06-29T05:34:45.749Z,20.67
2018-06-29T05:37:14.292Z,20.77
2018-06-29T05:39:42.793Z,20.86
2018-06-29T05:42:11.336Z,20.94
2018-06-29T05:44:39.860Z,20.99
2018-06-29T05:47:08.485Z,20.99
2018-06-29T05:49:37.008Z,21.05
2018-06-29T05:52:11.772Z,21.10
2018-06-29T05:54:40.526Z,21.18
2018-06-29T05:57:09.073Z,21.25
2018-06-29T05:59:39.929Z,21.26
2018-06-29T06:02:10.836Z,21.27
2018-06-29T06:04:39.644Z,21.28
2018-06-29T06:07:08.246Z,21.43
2018-06-29T06:09:36.752Z,21.50
2018-06-29T06:12:05.406Z,21.57
2018-06-29T06:14:33.965Z,21.69
2018-06-29T06:17:02.518Z,21.72
2018-06-29T06:19:42.361Z,21.76
2018-06-29T06:22:10.909Z,21.56
2018-06-29T06:24:39.457Z,21.87
2018-06-29T06:27:08.253Z,21.89
2018-06-29T06:29:36.816Z,21.93
2018-06-29T06:32:05.376Z,22.00
2018-06-29T06:34:33.891Z,22.09
2018-06-29T06:37:02.461Z,22.20
2018-06-29T06:39:30.991Z,22.20
2018-06-29T06:41:59.520Z,22.30
2018-06-29T06:44:28.062Z,22.48
2018-06-29T06:46:56.587Z,22.44
2018-06-29T06:49:25.154Z,22.47
2018-06-29T06:51:53.691Z,22.40
2018-06-29T06:54:22.241Z,22.53
2018-06-29T06:56:50.852Z,22.56
2018-06-29T06:59:19.702Z,22.61
2018-06-29T07:01:48.452Z,22.55
2018-06-29T07:04:17.415Z,22.77
2018-06-29T07:06:46.063Z,23.01
2018-06-29T07:09:14.774Z,23.02
2018-06-29T07:11:43.298Z,22.92
2018-06-29T07:14:11.852Z,23.02
2018-06-29T07:16:40.393Z,23.00
2018-06-29T07:19:08.972Z,23.10
2018-06-29T07:21:37.640Z,23.08
2018-06-29T07:24:07.121Z,23.13
2018-06-29T07:26:36.713Z,23.11
2018-06-29T07:29:05.345Z,23.06
2018-06-29T07:31:34.802Z,23.05
2018-06-29T07:34:08.038Z,22.91
2018-06-29T07:36:40.528Z,22.84
2018-06-29T07:39:12.357Z,23.03
2018-06-29T07:41:42.391Z,23.22
2018-06-29T07:44:15.168Z,23.30
2018-06-29T07:46:46.108Z,23.33
2018-06-29T07:49:17.682Z,23.45
2018-06-29T07:51:46.892Z,23.56
2018-06-29T07:54:17.449Z,23.64
2018-06-29T07:56:51.793Z,23.67
2018-06-29T07:59:22.572Z,23.83
2018-06-29T08:01:53.778Z,23.84
2018-06-29T08:04:28.137Z,23.80
2018-06-29T08:06:59.774Z,23.96
2018-06-29T08:09:37.144Z,24.02
2018-06-29T08:12:06.291Z,24.10
2018-06-29T08:14:36.850Z,24.12
2018-06-29T08:17:06.953Z,24.31
2018-06-29T08:19:36.809Z,24.23
2018-06-29T08:22:10.306Z,24.31
2018-06-29T08:24:51.404Z,24.42
2018-06-29T08:27:21.403Z,24.48
2018-06-29T08:29:52.850Z,24.58
2018-06-29T08:32:22.909Z,24.54
2018-06-29T08:34:52.679Z,24.54
2018-06-29T08:37:21.787Z,24.56
2018-06-29T08:39:52.776Z,24.68
2018-06-29T08:42:23.251Z,24.71
2018-06-29T08:44:53.441Z,24.73
2018-06-29T08:47:29.040Z,24.81
2018-06-29T08:50:09.026Z,24.82
2018-06-29T08:52:45.859Z,25.01
2018-06-29T08:55:24.684Z,25.05
2018-06-29T08:58:00.987Z,25.08
2018-06-29T09:00:42.805Z,25.11
2018-06-29T09:03:19.260Z,25.22
2018-06-29T09:06:01.885Z,25.34
2018-06-29T09:08:48.069Z,25.28
2018-06-29T09:11:27.737Z,25.34
2018-06-29T09:14:03.653Z,25.41
2018-06-29T09:16:39.808Z,25.50
2018-06-29T09:19:17.809Z,25.34
2018-06-29T09:21:57.714Z,25.32
2018-06-29T09:24:42.007Z,25.50
2018-06-29T09:27:18.006Z,25.49
2018-06-29T09:29:54.917Z,25.50
2018-06-29T09:32:35.425Z,25.60
2018-06-29T09:35:12.237Z,25.77
2018-06-29T09:37:47.481Z,25.60
2018-06-29T09:40:23.922Z,25.67
2018-06-29T09:43:01.767Z,25.86
2018-06-29T09:45:45.050Z,26.00
2018-06-29T09:48:24.714Z,25.94
2018-06-29T09:51:01.893Z,26.02
2018-06-29T09:53:42.762Z,25.84
2018-06-29T09:56:22.647Z,25.95
2018-06-29T09:59:01.672Z,25.81
2018-06-29T10:01:37.653Z,26.02
2018-06-29T10:04:10.024Z,25.99
2018-06-29T10:06:40.408Z,25.96
2018-06-29T10:09:11.085Z,26.22
2018-06-29T10:11:41.488Z,26.33
2018-06-29T10:14:12.642Z,26.34
2018-06-29T10:16:41.169Z,26.31
2018-06-29T10:19:12.035Z,26.29
2018-06-29T10:21:40.649Z,26.39
2018-06-29T10:24:09.200Z,26.25
2018-06-29T10:26:39.647Z,26.30
2018-06-29T10:29:09.220Z,26.38
2018-06-29T10:31:38.861Z,26.07
2018-06-29T10:34:10.223Z,26.15
2018-06-29T10:36:39.934Z,26.36
2018-06-29T10:39:13.217Z,26.57
2018-06-29T10:41:43.340Z,26.61
2018-06-29T10:44:14.105Z,26.52
2018-06-29T10:46:50.030Z,26.62
2018-06-29T10:49:21.022Z,26.73
2018-06-29T10:51:53.844Z,26.81
2018-06-29T10:54:23.102Z,26.86
2018-06-29T10:56:57.058Z,26.95
2018-06-29T10:59:27.961Z,26.83
2018-06-29T11:02:02.197Z,26.94
2018-06-29T11:04:32.644Z,27.08
2018-06-29T11:07:03.102Z,27.22
2018-06-29T11:09:32.874Z,27.58
2018-06-29T11:12:05.015Z,27.25
2018-06-29T11:14:33.680Z,27.41
2018-06-29T11:17:02.248Z,27.42
2018-06-29T11:19:30.800Z,27.51
2018-06-29T11:21:59.714Z,27.46
2018-06-29T11:24:32.369Z,27.41
2018-06-29T11:27:06.374Z,27.59
2018-06-29T11:29:36.811Z,27.47
2018-06-29T11:32:05.352Z,27.69
2018-06-29T11:34:35.061Z,27.73
2018-06-29T11:37:03.752Z,27.62
2018-06-29T11:39:32.844Z,27.74
2018-06-29T11:42:01.397Z,27.84
2018-06-29T11:44:29.912Z,28.04
2018-06-29T11:46:59.817Z,28.07
2018-06-29T11:49:28.479Z,27.77
2018-06-29T11:51:57.037Z,27.56
2018-06-29T11:54:25.559Z,27.73
2018-06-29T11:56:54.119Z,27.84
2018-06-29T11:59:22.633Z,28.18
2018-06-29T12:01:51.193Z,28.06
2018-06-29T12:04:19.724Z,28.26
2018-06-29T12:06:48.300Z,28.20
2018-06-29T12:09:16.819Z,28.31
2018-06-29T12:11:45.333Z,28.39
2018-06-29T12:14:13.876Z,28.55
2018-06-29T12:16:42.464Z,28.70
2018-06-29T12:19:11.069Z,28.78
2018-06-29T12:21:39.600Z,28.82
2018-06-29T12:24:12.664Z,28.80
2018-06-29T12:26:41.255Z,28.77
2018-06-29T12:29:09.840Z,28.79
2018-06-29T12:31:38.405Z,28.87
2018-06-29T12:34:06.988Z,29.03
2018-06-29T12:36:35.506Z,29.02
2018-06-29T12:39:11.952Z,29.12
2018-06-29T12:41:40.729Z,29.06
2018-06-29T12:44:09.352Z,29.11
2018-06-29T12:46:38.412Z,29.22
2018-06-29T12:49:07.003Z,29.23
2018-06-29T12:51:35.611Z,28.98
2018-06-29T12:54:04.156Z,28.99
2018-06-29T12:56:32.668Z,29.17
2018-06-29T12:59:01.577Z,29.16
2018-06-29T13:01:30.101Z,29.24
2018-06-29T13:03:58.661Z,29.21
2018-06-29T13:06:27.316Z,29.12
2018-06-29T13:08:55.892Z,29.29
2018-06-29T13:11:24.460Z,29.23
2018-06-29T13:13:53.244Z,29.44
2018-06-29T13:16:22.523Z,29.31
2018-06-29T13:18:57.285Z,29.43
2018-06-29T13:21:30.468Z,29.36
2018-06-29T13:23:59.264Z,29.11
2018-06-29T13:26:27.797Z,29.35
2018-06-29T13:28:56.344Z,29.17
2018-06-29T13:31:24.868Z,29.17
2018-06-29T13:33:53.495Z,29.09
2018-06-29T13:36:21.969Z,29.54
2018-06-29T13:38:50.520Z,29.72
2018-06-29T13:41:19.062Z,29.88
2018-06-29T13:43:47.643Z,29.76
2018-06-29T13:46:16.158Z,30.01
2018-06-29T13:48:44.708Z,30.16
2018-06-29T13:51:13.272Z,30.16
2018-06-29T13:53:41.824Z,30.07
2018-06-29T13:56:10.361Z,30.38
2018-06-29T13:58:38.917Z,30.16
2018-06-29T14:01:07.439Z,30.32
2018-06-29T14:03:38.467Z,30.33
2018-06-29T14:06:09.569Z,30.46
2018-06-29T14:08:43.866Z,30.55
2018-06-29T14:11:20.975Z,30.48
2018-06-29T14:13:56.132Z,30.19
2018-06-29T14:16:31.644Z,30.48
2018-06-29T14:19:09.774Z,30.18
2018-06-29T14:21:49.413Z,30.11
2018-06-29T14:24:29.173Z,30.37
2018-06-29T14:27:05.236Z,30.63
2018-06-29T14:29:40.466Z,30.87
2018-06-29T14:32:13.804Z,30.80
2018-06-29T14:34:50.352Z,30.73
2018-06-29T14:37:25.818Z,30.75
2018-06-29T14:40:03.940Z,31.02
2018-06-29T14:42:32.605Z,31.01
2018-06-29T14:45:01.181Z,31.03
2018-06-29T14:47:29.693Z,31.02
2018-06-29T14:49:58.263Z,30.35
2018-06-29T14:52:26.779Z,30.60
2018-06-29T14:54:55.353Z,30.90
2018-06-29T14:57:24.053Z,30.99
2018-06-29T14:59:52.601Z,30.69
2018-06-29T15:02:21.129Z,31.05
2018-06-29T15:04:49.677Z,30.75
2018-06-29T15:07:18.304Z,30.87
2018-06-29T15:09:46.853Z,30.64
2018-06-29T15:12:15.382Z,31.19
2018-06-29T15:14:43.949Z,31.34
2018-06-29T15:17:12.484Z,31.17
2018-06-29T15:19:41.061Z,31.23
2018-06-29T15:22:09.592Z,31.10
2018-06-29T15:24:39.089Z,31.42
2018-06-29T15:27:07.632Z,31.45
2018-06-29T15:29:36.191Z,31.56
2018-06-29T15:32:04.742Z,31.36
2018-06-29T15:34:33.267Z,31.46
2018-06-29T15:37:01.860Z,31.46
2018-06-29T15:39:30.388Z,31.25
2018-06-29T15:41:58.968Z,31.36
2018-06-29T15:44:27.520Z,31.30
2018-06-29T15:46:56.081Z,31.08
2018-06-29T15:49:24.604Z,31.40
2018-06-29T15:51:53.192Z,31.29
2018-06-29T15:54:21.717Z,31.47
2018-06-29T15:56:50.355Z,31.48
2018-06-29T15:59:18.980Z,31.65
2018-06-29T16:01:47.541Z,31.73
2018-06-29T16:04:16.074Z,31.73
2018-06-29T16:06:44.704Z,31.63
2018-06-29T16:09:13.220Z,31.82
2018-06-29T16:11:41.802Z,31.64
2018-06-29T16:14:10.328Z,31.57
2018-06-29T16:16:39.625Z,31.77
2018-06-29T16:19:09.292Z,31.84
2018-06-29T16:21:37.903Z,32.14
2018-06-29T16:24:06.637Z,31.84
2018-06-29T16:26:35.201Z,31.67
2018-06-29T16:29:04.064Z,31.26
2018-06-29T16:31:32.620Z,31.13
2018-06-29T16:34:01.225Z,30.84
2018-06-29T16:36:29.832Z,30.77
2018-06-29T16:38:58.367Z,31.29
2018-06-29T16:41:28.356Z,31.69
2018-06-29T16:43:57.017Z,31.63
2018-06-29T16:46:25.785Z,33.41
2018-06-29T16:48:54.476Z,39.14
2018-06-29T16:51:23.667Z,39.59
2018-06-29T16:53:52.285Z,40.89
2018-06-29T16:56:22.120Z,40.26
2018-06-29T16:58:50.778Z,38.91
2018-06-29T17:01:19.328Z,39.33
2018-06-29T17:03:48.995Z,40.78
2018-06-29T17:06:17.552Z,40.57
2018-06-29T17:08:46.355Z,39.43
2018-06-29T17:11:16.461Z,41.65
2018-06-29T17:13:45.007Z,42.32
2018-06-29T17:16:13.681Z,40.53
2018-06-29T17:18:42.491Z,40.08
2018-06-29T17:21:11.050Z,39.61
2018-06-29T17:23:39.629Z,42.08
2018-06-29T17:26:08.385Z,42.88
2018-06-29T17:28:37.118Z,41.23
2018-06-29T17:31:05.669Z,40.27
2018-06-29T17:33:34.308Z,40.85
2018-06-29T17:36:03.151Z,41.04
2018-06-29T17:38:31.805Z,42.06
2018-06-29T17:41:00.325Z,42.57
2018-06-29T17:43:28.886Z,40.71
2018-06-29T17:45:57.484Z,40.70
2018-06-29T17:48:26.412Z,41.64
2018-06-29T17:50:55.247Z,41.37
2018-06-29T17:53:24.573Z,39.89
2018-06-29T17:55:53.492Z,40.46
2018-06-29T17:58:22.116Z,38.92
2018-06-29T18:00:51.174Z,37.96
2018-06-29T18:03:19.720Z,37.34
2018-06-29T18:05:48.240Z,35.32
2018-06-29T18:08:16.874Z,35.70
2018-06-29T18:10:45.445Z,34.19
2018-06-29T18:13:14.023Z,33.53
2018-06-29T18:15:42.565Z,33.70
2018-06-29T18:18:11.175Z,33.75
2018-06-29T18:20:39.722Z,33.36
2018-06-29T18:23:08.297Z,33.83
2018-06-29T18:25:37.684Z,33.50
2018-06-29T18:28:06.433Z,32.93
2018-06-29T18:30:34.961Z,32.41
2018-06-29T18:33:03.619Z,33.15
2018-06-29T18:35:32.149Z,32.64
2018-06-29T18:38:01.099Z,32.32
2018-06-29T18:40:29.794Z,31.91
2018-06-29T18:42:58.497Z,32.24
2018-06-29T18:45:27.501Z,31.58
2018-06-29T18:47:56.104Z,31.38
2018-06-29T18:50:24.656Z,31.55
2018-06-29T18:52:53.195Z,31.14
2018-06-29T18:55:23.369Z,30.82
2018-06-29T18:57:52.006Z,30.35
2018-06-29T19:00:20.544Z,30.08
2018-06-29T19:02:50.032Z,29.38
2018-06-29T19:05:18.610Z,29.33
2018-06-29T19:07:48.432Z,29.17
2018-06-29T19:10:17.181Z,28.64
2018-06-29T19:12:45.750Z,28.30
2018-06-29T19:15:14.261Z,28.25
2018-06-29T19:17:45.330Z,28.12
2018-06-29T19:20:14.046Z,27.87
2018-06-29T19:22:45.220Z,27.72
2018-06-29T19:25:15.842Z,27.40
2018-06-29T19:27:46.048Z,27.18
2018-06-29T19:30:15.527Z,26.94
2018-06-29T19:32:45.824Z,26.99
2018-06-29T19:35:14.468Z,27.04
2018-06-29T19:37:45.655Z,26.51
2018-06-29T19:40:16.868Z,26.50
2018-06-29T19:42:45.473Z,26.28
2018-06-29T19:45:14.828Z,26.09
2018-06-29T19:47:44.350Z,25.92
2018-06-29T19:50:13.479Z,25.75
2018-06-29T19:52:43.461Z,25.09
2018-06-29T19:55:12.761Z,25.15
2018-06-29T19:57:42.516Z,25.18
2018-06-29T20:00:11.859Z,24.98
2018-06-29T20:02:47.213Z,24.81
2018-06-29T20:05:16.198Z,24.82
2018-06-29T20:07:44.873Z,24.58
2018-06-29T20:10:13.450Z,24.45
2018-06-29T20:12:44.362Z,24.30
2018-06-29T20:15:13.260Z,24.11
2018-06-29T20:17:42.590Z,23.66
2018-06-29T20:20:13.140Z,23.89
2018-06-29T20:22:43.194Z,23.82
2018-06-29T20:25:13.265Z,23.45
2018-06-29T20:27:47.540Z,23.46
2018-06-29T20:30:16.288Z,23.46
2018-06-29T20:32:44.824Z,23.24
2018-06-29T20:35:13.381Z,23.32
2018-06-29T20:37:41.901Z,23.25
2018-06-29T20:40:11.541Z,23.07
2018-06-29T20:42:40.053Z,23.09
2018-06-29T20:45:08.806Z,22.98
2018-06-29T20:47:37.354Z,23.06
2018-06-29T20:50:06.945Z,23.07
2018-06-29T20:52:35.808Z,23.00
2018-06-29T20:55:04.413Z,22.76
2018-06-29T20:57:32.977Z,22.77
2018-06-29T21:00:01.539Z,22.67
2018-06-29T21:02:30.065Z,22.67
2018-06-29T21:04:58.622Z,22.53
2018-06-29T21:07:27.179Z,22.48
2018-06-29T21:09:55.745Z,22.52
2018-06-29T21:12:24.386Z,22.30
2018-06-29T21:14:52.944Z,22.19
2018-06-29T21:17:21.472Z,22.20
2018-06-29T21:19:50.021Z,22.08
2018-06-29T21:22:19.103Z,22.17
2018-06-29T21:24:47.648Z,22.32
2018-06-29T21:27:20.434Z,22.19
2018-06-29T21:29:53.256Z,21.99
2018-06-29T21:32:21.959Z,21.91
2018-06-29T21:34:53.506Z,21.94
2018-06-29T21:37:24.006Z,21.81
2018-06-29T21:39:58.102Z,21.86
2018-06-29T21:42:29.165Z,21.76
2018-06-29T21:44:59.796Z,21.81
2018-06-29T21:47:29.799Z,21.34
2018-06-29T21:50:00.840Z,21.12
2018-06-29T21:52:29.380Z,21.22
2018-06-29T21:54:57.967Z,21.15
2018-06-29T21:57:26.504Z,21.12
2018-06-29T21:59:55.049Z,21.16
2018-06-29T22:02:29.228Z,21.23
2018-06-29T22:04:59.191Z,21.17
2018-06-29T22:07:28.789Z,21.06
2018-06-29T22:10:01.209Z,21.11
2018-06-29T22:12:30.834Z,20.96
2018-06-29T22:15:04.204Z,20.96
2018-06-29T22:17:35.264Z,20.95
2018-06-29T22:20:07.842Z,20.92
2018-06-29T22:22:37.640Z,20.75
2018-06-29T22:25:11.424Z,20.16
2018-06-29T22:27:42.056Z,20.37
2018-06-29T22:30:11.255Z,19.93
2018-06-29T22:32:42.452Z,20.04
2018-06-29T22:35:13.261Z,20.14
2018-06-29T22:37:44.536Z,20.25
2018-06-29T22:40:14.997Z,20.12
2018-06-29T22:42:53.564Z,20.14
2018-06-29T22:45:25.870Z,20.10
2018-06-29T22:47:58.769Z,20.21
2018-06-29T22:50:30.683Z,20.22
2018-06-29T22:53:05.144Z,20.07
2018-06-29T22:55:35.114Z,20.13
2018-06-29T22:58:07.281Z,19.98
2018-06-29T23:00:38.796Z,19.93
2018-06-29T23:03:14.701Z,19.96
2018-06-29T23:05:44.949Z,19.90
2018-06-29T23:08:17.307Z,19.91
2018-06-29T23:10:46.006Z,19.89
2018-06-29T23:13:17.624Z,19.78
2018-06-29T23:15:46.309Z,19.43
2018-06-29T23:18:18.895Z,19.29
2018-06-29T23:20:49.596Z,19.24
2018-06-29T23:23:20.089Z,19.30
2018-06-29T23:25:50.045Z,19.30
2018-06-29T23:28:20.371Z,19.16
2018-06-29T23:30:49.065Z,19.22
2018-06-29T23:33:17.582Z,18.96
2018-06-29T23:35:46.105Z,18.78
2018-06-29T23:38:15.958Z,18.62
2018-06-29T23:40:44.593Z,18.90
2018-06-29T23:43:13.212Z,19.01
2018-06-29T23:45:41.831Z,18.89
2018-06-29T23:48:10.389Z,18.55
2018-06-29T23:50:41.829Z,18.78
2018-06-29T23:53:13.428Z,18.73
2018-06-29T23:55:41.957Z,18.93
2018-06-29T23:58:10.509Z,18.86
